This is the latest recevied weather packets stored in our database for station/object PE1RXF-13. If no packets are shown the sender has not sent any weather packets the latest 10 day(s).
| Time | Temp. | Humidity | Pressure | Rain* | Wind** | Luminosity | Snow |
|---|---|---|---|---|---|---|---|
| 1788120731 | 16.11° C | 99% | 1009.9 hPa | 0 mm | - | 0 W/m² | - |
| 1788119628 | 16.11° C | 99% | 1010.1 hPa | 0 mm | - | 0 W/m² | - |
| 1788118525 | 16.11° C | 99% | 1010.2 hPa | 0 mm | - | 0 W/m² | - |
| 1788117422 | 16.67° C | 99% | 1010.2 hPa | 0 mm | - | 0 W/m² | - |
| 1788116319 | 16.67° C | 99% | 1010.2 hPa | 0 mm | - | 0 W/m² | - |
| 1788115216 | 16.67° C | 99% | 1010.2 hPa | 0 mm | - | 0 W/m² | - |
| 1788114113 | 17.22° C | 99% | 1010.2 hPa | 0 mm | - | 0 W/m² | - |
| 1788113010 | 17.22° C | 99% | 1010.1 hPa | 0 mm | - | 2 W/m² | - |
| 1788111907 | 17.78° C | 99% | 1009.9 hPa | 0.25 mm | - | 6 W/m² | - |
| 1788110817 | 17.78° C | 99% | 1009.9 hPa | 0.25 mm | - | 10 W/m² | - |
| 1788109701 | 17.78° C | 99% | 1009.9 hPa | 0.25 mm | - | 8 W/m² | - |
| 1788108598 | 17.78° C | 99% | 1010 hPa | 0 mm | - | 13 W/m² | - |
| 1788107495 | 19.44° C | 99% | 1009.7 hPa | 0 mm | - | 11 W/m² | - |
| 1788106392 | 20.56° C | 99% | 1009.5 hPa | 0 mm | - | 22 W/m² | - |
| 1788105289 | 21.11° C | 99% | 1009.4 hPa | 0 mm | - | 32 W/m² | - |
| 1788104186 | 21.67° C | 99% | 1009.4 hPa | 0 mm | - | 83 W/m² | - |
| 1788103083 | 21.67° C | 99% | 1009.4 hPa | 0 mm | - | 97 W/m² | - |
| 1788101980 | 21.11° C | 99% | 1009.4 hPa | 0 mm | - | 120 W/m² | - |
| 1788100877 | 20° C | 99% | 1009.3 hPa | 0.51 mm | - | 48 W/m² | - |
| 1788099774 | 21.11° C | 99% | 1009.1 hPa | 0.51 mm | - | 166 W/m² | - |
| 1788098671 | 20.56° C | 99% | 1009.1 hPa | 0.51 mm | - | 76 W/m² | - |
| 1788097568 | 19.44° C | 99% | 1009 hPa | 0 mm | - | 49 W/m² | - |
| 1788096465 | 18.89° C | 99% | 1008.9 hPa | 0 mm | - | 26 W/m² | - |
| 1788095362 | 18.89° C | 99% | 1008.7 hPa | 0 mm | - | 20 W/m² | - |
| 1788094259 | 20.56° C | 99% | 1008.6 hPa | 3.81 mm | - | 15 W/m² | - |
* Rain latest hour (hover to see other rain measurements)
** Current wind speed in m/s (hover to see current wind gust speed)